หน้าหลัก
METAR-TAF:

METAR-TAF

ท่าอากาศยาน :

ท่าอากาศยานนานาชาติดูไบ

ดูไบ, สหรัฐอาหรับเอมิเรตส์

ละติจูด: 25-15-10N, ลองจิจูด: 055-21-52E, ความสูง: 8 ม.

การสังเกตสภาพอากาศปัจจุบัน

รายงานได้ทำขึ้นเมื่อ 18 นาทีที่แล้ว ณ เวลา 03:00 UTC
ลม 7 นอตจากใต้/ตะวันตกเฉียงใต้, แปรผันระหว่างใต้ และตะวันตกเฉียงใต้
อุณหภูมิ 28°C
ความชื้น 58%
ความกดอากาศ 1002 hPa
ทัศนวิสัย 10 กม. หรือมากกว่า
ไม่มีเมฆต่ำกว่า 1,500 ม. และไม่มีเมฆคิวมูโลนิมบัส

METAR: OMDB 240300Z 21007KT 170V230 CAVOK 28/19 Q1002 NOSIG

เวลา: 07:18 (03:18 UTC)

การพยากรณ์

รายงานได้ทำขึ้นเมื่อ 4 ชั่วโมงและ 18 นาทีที่แล้ว ณ เวลา 23:00 UTC
การพยากรณ์มีผลตั้งแต่วันที่ 24 ณ เวลา 00 UTC จนถึงวันที่ 25 ณ เวลา 06 UTC
ลม 7 นอตจากตะวันตกเฉียงใต้
ทัศนวิสัย 10 กม. หรือมากกว่า
ไม่มีเมฆต่ำกว่า 1,500 ม. และไม่มีเมฆคิวมูโลนิมบัส
กำลังกลายเป็น
ตั้งแต่วันที่ 24 ณ เวลา 05 UTC จนถึงวันที่ 24 ณ เวลา 07 UTC
ลม 14 นอตจากตะวันตก/ตะวันตกเฉียงเหนือ
กำลังกลายเป็น
ตั้งแต่วันที่ 24 ณ เวลา 17 UTC จนถึงวันที่ 24 ณ เวลา 19 UTC
ลม 8 นอตจากใต้/ตะวันตกเฉียงใต้

TAF: OMDB 232300Z 2400/2506 22007KT CAVOK BECMG 2405/2407 29014KT BECMG 2417/2419 20008KT

สังเกตการณ์สภาพอากาศและพยากรณ์อากาศของสนามบินมากกว่า 4000 แห่ง (รายงาน METAR และ TAF).

สถานีที่ดูได้จะแสดงไว้ด้วยจุดสีเหลืองและสีแดงบนแผนที่.

เลื่อนเมาส์ไปเหนือจุดเพื่อดูชื่อสถานี.

แล้วคลิกเพื่อดูสังเกตการณ์และการพยากรณ์สภาพอากาศ.

ในการเปลี่ยนแผนที่: คลิกที่ปุ่มสีเขียวที่มีกากบาทสีดำเพื่อซูมเข้า; ที่ปุ่มสีเขียวที่มีขีดเพื่อซูมออก; หรือที่ลูกศรสีเขียวเพื่อไปยังแผนที่ที่อยู่ติดกัน.


METAR-TAF: